createdAt,value
2018-07-09T00:00:56.288Z,70.37
2018-07-09T00:03:24.918Z,70.08
2018-07-09T00:05:53.772Z,70.11
2018-07-09T00:08:22.409Z,70.45
2018-07-09T00:10:57.052Z,70.41
2018-07-09T00:13:26.275Z,70.14
2018-07-09T00:15:55.255Z,70.34
2018-07-09T00:18:24.010Z,70.21
2018-07-09T00:20:52.641Z,70.44
2018-07-09T00:23:21.284Z,69.98
2018-07-09T00:25:50.781Z,70.13
2018-07-09T00:28:20.302Z,70.39
2018-07-09T00:30:49.015Z,70.60
2018-07-09T00:33:18.235Z,70.80
2018-07-09T00:35:47.352Z,70.89
2018-07-09T00:38:16.458Z,71.11
2018-07-09T00:40:45.196Z,70.89
2018-07-09T00:43:13.871Z,71.03
2018-07-09T00:45:42.483Z,71.20
2018-07-09T00:48:11.124Z,71.09
2018-07-09T00:50:39.766Z,71.34
2018-07-09T00:53:08.439Z,71.53
2018-07-09T00:55:37.071Z,71.43
2018-07-09T00:58:05.795Z,71.48
2018-07-09T01:00:34.461Z,71.55
2018-07-09T01:03:03.138Z,71.66
2018-07-09T01:05:31.719Z,72.28
2018-07-09T01:08:00.406Z,72.34
2018-07-09T01:10:29.034Z,72.47
2018-07-09T01:12:57.700Z,72.73
2018-07-09T01:15:26.338Z,72.90
2018-07-09T01:17:54.977Z,73.13
2018-07-09T01:20:23.682Z,73.33
2018-07-09T01:22:52.229Z,73.38
2018-07-09T01:25:20.870Z,73.37
2018-07-09T01:27:49.797Z,73.77
2018-07-09T01:30:18.423Z,73.92
2018-07-09T01:32:47.131Z,74.13
2018-07-09T01:35:15.789Z,74.14
2018-07-09T01:37:44.451Z,74.40
2018-07-09T01:40:13.115Z,74.49
2018-07-09T01:42:41.739Z,74.82
2018-07-09T01:45:10.431Z,74.89
2018-07-09T01:47:39.093Z,75.46
2018-07-09T01:50:07.757Z,75.42
2018-07-09T01:52:36.371Z,75.62
2018-07-09T01:55:05.029Z,75.93
2018-07-09T01:57:33.643Z,76.38
2018-07-09T02:00:02.311Z,76.45
2018-07-09T02:02:30.966Z,76.65
2018-07-09T02:04:59.662Z,77.19
2018-07-09T02:07:28.284Z,77.12
2018-07-09T02:09:56.930Z,77.23
2018-07-09T02:12:25.601Z,77.81
2018-07-09T02:14:54.252Z,78.01
2018-07-09T02:17:23.001Z,78.15
2018-07-09T02:19:51.615Z,78.03
2018-07-09T02:22:20.257Z,78.27
2018-07-09T02:24:50.092Z,78.32
2018-07-09T02:27:18.736Z,78.75
2018-07-09T02:29:47.367Z,78.69
2018-07-09T02:32:16.016Z,78.52
2018-07-09T02:34:44.622Z,78.85
2018-07-09T02:37:13.290Z,79.01
2018-07-09T02:39:41.913Z,78.96
2018-07-09T02:42:10.539Z,79.05
2018-07-09T02:44:39.180Z,79.03
2018-07-09T02:47:07.803Z,78.79
2018-07-09T02:49:36.517Z,78.67
2018-07-09T02:52:05.145Z,78.96
2018-07-09T02:54:33.808Z,78.92
2018-07-09T02:57:02.453Z,78.77
2018-07-09T02:59:31.063Z,78.43
2018-07-09T03:01:59.727Z,77.75
2018-07-09T03:04:28.436Z,77.64
2018-07-09T03:06:57.137Z,77.40
2018-07-09T03:09:25.803Z,77.27
2018-07-09T03:11:54.456Z,77.00
2018-07-09T03:14:23.110Z,77.09
2018-07-09T03:16:51.864Z,76.63
2018-07-09T03:19:20.536Z,76.78
2018-07-09T03:21:49.220Z,76.54
2018-07-09T03:24:17.937Z,76.68
2018-07-09T03:26:46.592Z,76.56
2018-07-09T03:29:15.277Z,76.55
2018-07-09T03:31:43.928Z,76.78
2018-07-09T03:34:12.652Z,76.82
2018-07-09T03:36:41.291Z,77.01
2018-07-09T03:39:09.987Z,76.86
2018-07-09T03:41:38.670Z,77.19
2018-07-09T03:44:07.288Z,76.69
2018-07-09T03:46:35.953Z,76.53
2018-07-09T03:49:04.803Z,77.01
2018-07-09T03:51:33.852Z,76.99
2018-07-09T03:54:02.516Z,77.64
2018-07-09T03:56:31.215Z,77.30
2018-07-09T03:58:59.885Z,76.65
2018-07-09T04:01:28.675Z,76.51
2018-07-09T04:03:57.365Z,76.22
2018-07-09T04:06:26.072Z,76.65
2018-07-09T04:08:54.760Z,76.61
2018-07-09T04:11:23.455Z,76.23
2018-07-09T04:13:52.135Z,76.31
2018-07-09T04:16:20.959Z,76.10
2018-07-09T04:18:49.674Z,76.56
2018-07-09T04:21:18.305Z,77.64
2018-07-09T04:23:46.986Z,78.06
2018-07-09T04:26:15.729Z,77.87
2018-07-09T04:28:44.368Z,77.90
2018-07-09T04:31:13.247Z,78.48
2018-07-09T04:33:41.912Z,79.29
2018-07-09T04:36:10.584Z,79.40
2018-07-09T04:38:39.267Z,79.13
2018-07-09T04:41:07.987Z,79.61
2018-07-09T04:43:36.800Z,79.52
2018-07-09T04:46:05.684Z,79.48
2018-07-09T04:48:34.673Z,79.31
2018-07-09T04:51:03.589Z,79.22
2018-07-09T04:53:32.257Z,79.66
2018-07-09T04:56:00.943Z,79.38
2018-07-09T04:58:29.583Z,79.67
2018-07-09T05:00:58.284Z,79.82
2018-07-09T05:03:26.988Z,80.09
2018-07-09T05:05:55.671Z,79.89
2018-07-09T05:08:24.386Z,79.48
2018-07-09T05:10:53.089Z,79.16
2018-07-09T05:13:22.361Z,79.04
2018-07-09T05:15:51.033Z,79.25
2018-07-09T05:18:19.775Z,79.30
2018-07-09T05:20:48.419Z,79.67
2018-07-09T05:23:17.202Z,79.77
2018-07-09T05:25:46.280Z,79.61
2018-07-09T05:28:15.198Z,79.17
2018-07-09T05:30:43.956Z,79.93
2018-07-09T05:33:12.602Z,79.36
2018-07-09T05:35:41.304Z,79.85
2018-07-09T05:38:09.973Z,79.83
2018-07-09T05:40:38.734Z,80.15
2018-07-09T05:43:07.400Z,80.03
2018-07-09T05:45:36.047Z,80.06
2018-07-09T05:48:05.832Z,80.56
2018-07-09T05:50:34.514Z,80.31
2018-07-09T05:53:03.233Z,80.05
2018-07-09T05:55:31.880Z,79.85
2018-07-09T05:58:00.574Z,80.09
2018-07-09T06:00:29.223Z,79.96
2018-07-09T06:02:57.925Z,80.07
2018-07-09T06:05:26.648Z,80.70
2018-07-09T06:07:55.319Z,80.49
2018-07-09T06:10:24.006Z,80.51
2018-07-09T06:12:52.659Z,80.84
2018-07-09T06:15:21.351Z,80.78
2018-07-09T06:17:50.016Z,80.92
2018-07-09T06:20:18.748Z,81.44
2018-07-09T06:22:47.515Z,81.28
2018-07-09T06:25:16.157Z,80.41
2018-07-09T06:27:44.856Z,80.22
2018-07-09T06:30:13.531Z,79.99
2018-07-09T06:32:42.246Z,79.47
2018-07-09T06:35:10.944Z,79.08
2018-07-09T06:37:39.636Z,78.78
2018-07-09T06:40:08.389Z,78.83
2018-07-09T06:42:37.081Z,78.50
2018-07-09T06:45:06.123Z,78.70
2018-07-09T06:47:34.812Z,78.74
2018-07-09T06:50:03.552Z,78.47
2018-07-09T06:52:32.375Z,78.65
2018-07-09T06:55:01.045Z,78.75
2018-07-09T06:57:29.693Z,77.71
2018-07-09T06:59:58.357Z,77.71
2018-07-09T07:02:27.100Z,77.23
2018-07-09T07:04:55.715Z,77.70
2018-07-09T07:07:24.361Z,78.02
2018-07-09T07:09:53.107Z,78.16
2018-07-09T07:12:21.898Z,77.68
2018-07-09T07:14:50.565Z,77.70
2018-07-09T07:17:19.410Z,76.46
2018-07-09T07:19:48.053Z,76.49
2018-07-09T07:22:16.730Z,76.04
2018-07-09T07:24:45.424Z,75.02
2018-07-09T07:27:14.130Z,74.37
2018-07-09T07:29:42.818Z,74.43
2018-07-09T07:32:11.546Z,74.24
2018-07-09T07:34:40.229Z,73.18
2018-07-09T07:37:08.887Z,72.85
2018-07-09T07:39:37.559Z,71.85
2018-07-09T07:42:06.367Z,71.78
2018-07-09T07:44:35.103Z,71.65
2018-07-09T07:47:03.757Z,71.59
2018-07-09T07:49:32.444Z,71.90
2018-07-09T07:52:01.155Z,72.23
2018-07-09T07:54:29.848Z,72.84
2018-07-09T07:56:58.495Z,72.34
2018-07-09T07:59:27.128Z,72.06
2018-07-09T08:01:55.788Z,71.18
2018-07-09T08:04:24.717Z,72.30
2018-07-09T08:06:53.556Z,72.62
2018-07-09T08:09:22.271Z,73.43
2018-07-09T08:11:52.815Z,73.14
2018-07-09T08:14:21.504Z,74.00
2018-07-09T08:16:50.225Z,74.34
2018-07-09T08:19:18.913Z,74.43
2018-07-09T08:21:47.629Z,72.91
2018-07-09T08:24:16.376Z,72.16
2018-07-09T08:26:45.093Z,72.25
2018-07-09T08:29:13.752Z,71.11
2018-07-09T08:31:42.486Z,72.08
2018-07-09T08:34:11.184Z,72.01
2018-07-09T08:36:39.869Z,71.71
2018-07-09T08:39:08.522Z,72.06
2018-07-09T08:41:37.210Z,71.82
2018-07-09T08:44:06.035Z,72.23
2018-07-09T08:46:34.923Z,71.37
2018-07-09T08:49:04.572Z,71.32
2018-07-09T08:51:33.279Z,71.27
2018-07-09T08:54:01.964Z,70.89
2018-07-09T08:56:30.710Z,70.86
2018-07-09T08:58:59.434Z,70.39
2018-07-09T09:01:28.123Z,70.00
2018-07-09T09:03:56.888Z,69.06
2018-07-09T09:06:26.477Z,68.47
2018-07-09T09:08:55.802Z,67.48
2018-07-09T09:11:24.544Z,65.54
2018-07-09T09:13:53.372Z,64.93
2018-07-09T09:16:22.148Z,63.93
2018-07-09T09:18:51.124Z,65.32
2018-07-09T09:21:20.009Z,65.66
2018-07-09T09:23:48.695Z,65.58
2018-07-09T09:26:17.381Z,65.58
2018-07-09T09:28:46.065Z,64.24
2018-07-09T09:31:14.753Z,63.47
2018-07-09T09:33:43.493Z,62.61
2018-07-09T09:36:12.244Z,63.01
2018-07-09T09:38:40.970Z,63.30
2018-07-09T09:41:09.733Z,61.36
2018-07-09T09:43:38.453Z,60.02
2018-07-09T09:46:07.357Z,59.65
2018-07-09T09:48:36.065Z,60.20
2018-07-09T09:51:04.809Z,60.56
2018-07-09T09:53:33.542Z,61.82
2018-07-09T09:56:02.261Z,60.75
2018-07-09T09:58:30.965Z,61.10
2018-07-09T10:01:00.219Z,62.81
2018-07-09T10:03:28.916Z,63.32
2018-07-09T10:05:57.588Z,62.18
2018-07-09T10:08:26.311Z,60.42
2018-07-09T10:10:54.964Z,58.94
2018-07-09T10:13:23.626Z,59.85
2018-07-09T10:15:52.300Z,61.30
2018-07-09T10:18:21.048Z,61.04
2018-07-09T10:20:49.683Z,60.51
2018-07-09T10:23:18.428Z,60.33
2018-07-09T10:25:47.074Z,59.30
2018-07-09T10:28:15.762Z,59.36
2018-07-09T10:30:44.452Z,59.22
2018-07-09T10:33:13.109Z,58.66
2018-07-09T10:35:41.784Z,57.63
2018-07-09T10:38:10.510Z,56.98
2018-07-09T10:40:39.237Z,57.15
2018-07-09T10:43:07.896Z,57.14
2018-07-09T10:45:36.568Z,57.35
2018-07-09T10:48:05.307Z,56.50
2018-07-09T10:50:33.942Z,56.75
2018-07-09T10:53:02.596Z,56.42
2018-07-09T10:55:31.260Z,56.30
2018-07-09T10:58:00.015Z,57.84
2018-07-09T11:00:28.726Z,58.04
2018-07-09T11:02:57.438Z,56.19
2018-07-09T11:05:26.199Z,56.65
2018-07-09T11:07:55.689Z,57.14
2018-07-09T11:10:24.429Z,57.23
2018-07-09T11:12:53.207Z,58.38
2018-07-09T11:15:21.906Z,57.63
2018-07-09T11:17:51.146Z,56.45
2018-07-09T11:20:19.836Z,56.11
2018-07-09T11:22:48.548Z,56.14
2018-07-09T11:25:17.287Z,55.72
2018-07-09T11:27:45.977Z,55.60
2018-07-09T11:30:14.663Z,56.16
2018-07-09T11:32:43.434Z,56.92
2018-07-09T11:35:12.209Z,57.11
2018-07-09T11:37:41.012Z,56.56
2018-07-09T11:40:09.790Z,55.70
2018-07-09T11:42:38.522Z,55.76
2018-07-09T11:45:07.216Z,56.15
2018-07-09T11:47:36.014Z,55.94
2018-07-09T11:50:04.977Z,55.50
2018-07-09T11:52:33.830Z,54.28
2018-07-09T11:55:02.673Z,54.69
2018-07-09T11:57:31.572Z,56.60
2018-07-09T12:00:00.327Z,57.14
2018-07-09T12:02:29.029Z,58.31
2018-07-09T12:04:57.782Z,57.99
2018-07-09T12:07:26.509Z,58.84
2018-07-09T12:09:55.277Z,60.00
2018-07-09T12:12:23.932Z,60.08
2018-07-09T12:14:52.642Z,61.36
2018-07-09T12:17:21.504Z,61.17
2018-07-09T12:19:50.189Z,59.97
2018-07-09T12:22:18.938Z,60.71
2018-07-09T12:24:47.616Z,60.87
2018-07-09T12:27:16.275Z,60.88
2018-07-09T12:29:44.945Z,59.96
2018-07-09T12:32:13.705Z,57.56
2018-07-09T12:34:42.486Z,55.48
2018-07-09T12:37:11.489Z,54.35
2018-07-09T12:39:40.280Z,54.51
2018-07-09T12:42:08.999Z,54.36
2018-07-09T12:44:37.871Z,54.05
2018-07-09T12:47:06.627Z,55.12
2018-07-09T12:49:35.305Z,55.52
2018-07-09T12:52:03.964Z,55.60
2018-07-09T12:54:32.752Z,55.00
2018-07-09T12:57:01.415Z,55.89
2018-07-09T12:59:30.120Z,57.02
2018-07-09T13:01:58.787Z,56.20
2018-07-09T13:04:27.456Z,56.37
2018-07-09T13:06:56.148Z,56.90
2018-07-09T13:09:24.874Z,57.57
2018-07-09T13:11:53.633Z,56.76
2018-07-09T13:14:22.380Z,56.99
2018-07-09T13:16:51.029Z,57.21
2018-07-09T13:19:19.709Z,57.01
2018-07-09T13:21:48.418Z,57.27
2018-07-09T13:24:17.132Z,56.15
2018-07-09T13:26:45.814Z,55.59
2018-07-09T13:29:14.481Z,56.53
2018-07-09T13:31:43.196Z,57.39
2018-07-09T13:34:11.844Z,57.84
2018-07-09T13:36:40.567Z,57.73
2018-07-09T13:39:09.342Z,57.76
2018-07-09T13:41:38.152Z,57.52
2018-07-09T13:44:06.877Z,57.56
2018-07-09T13:46:35.692Z,56.98
2018-07-09T13:49:04.385Z,56.47
2018-07-09T13:51:33.045Z,55.85
2018-07-09T13:54:01.724Z,56.85
2018-07-09T13:56:30.372Z,57.41
2018-07-09T13:58:59.048Z,57.55
2018-07-09T14:01:27.717Z,56.40
2018-07-09T14:03:56.383Z,56.16
2018-07-09T14:06:25.123Z,55.95
2018-07-09T14:08:53.842Z,55.79
2018-07-09T14:11:22.509Z,56.29
2018-07-09T14:13:51.192Z,55.61
2018-07-09T14:16:19.966Z,54.99
2018-07-09T14:18:48.676Z,55.49
2018-07-09T14:21:17.316Z,55.39
2018-07-09T14:23:46.020Z,55.94
2018-07-09T14:26:14.724Z,55.81
2018-07-09T14:28:43.368Z,55.18
2018-07-09T14:31:12.132Z,54.88
2018-07-09T14:33:40.824Z,55.21
2018-07-09T14:36:09.521Z,55.60
2018-07-09T14:38:38.240Z,55.44
2018-07-09T14:41:06.992Z,55.65
2018-07-09T14:43:35.636Z,54.95
2018-07-09T14:46:04.399Z,55.76
2018-07-09T14:48:33.131Z,55.24
2018-07-09T14:51:01.783Z,55.45
2018-07-09T14:53:30.504Z,55.21
2018-07-09T14:55:59.204Z,55.20
2018-07-09T14:58:28.524Z,55.50
2018-07-09T15:00:57.192Z,55.83
2018-07-09T15:03:25.920Z,56.15
2018-07-09T15:08:29.905Z,56.03
2018-07-09T15:10:58.577Z,57.38
2018-07-09T15:13:27.276Z,57.85
2018-07-09T15:15:55.990Z,59.20
2018-07-09T15:18:24.682Z,59.53
2018-07-09T15:20:53.539Z,59.45
2018-07-09T15:23:22.207Z,59.57
2018-07-09T15:25:51.046Z,59.06
2018-07-09T15:28:19.753Z,58.72
2018-07-09T15:30:48.420Z,58.44
2018-07-09T15:33:17.155Z,58.38
2018-07-09T15:35:45.860Z,57.26
2018-07-09T15:38:14.545Z,56.33
2018-07-09T15:40:43.315Z,55.39
2018-07-09T15:43:12.111Z,54.70
2018-07-09T15:45:40.868Z,54.58
2018-07-09T15:48:10.482Z,54.62
2018-07-09T15:50:39.320Z,54.49
2018-07-09T15:53:08.070Z,54.85
2018-07-09T15:55:36.736Z,54.70
2018-07-09T15:58:05.717Z,54.67
2018-07-09T16:00:34.416Z,54.52
2018-07-09T16:03:03.166Z,54.47
2018-07-09T16:05:31.811Z,54.68
2018-07-09T16:08:00.449Z,55.18
2018-07-09T16:10:29.135Z,55.12
2018-07-09T16:12:58.096Z,55.25
2018-07-09T16:15:26.904Z,55.94
2018-07-09T16:17:55.563Z,55.60
2018-07-09T16:20:24.348Z,55.22
2018-07-09T16:22:52.911Z,55.47
2018-07-09T16:25:21.634Z,55.54
2018-07-09T16:27:50.461Z,55.99
2018-07-09T16:30:19.171Z,54.67
2018-07-09T16:32:47.877Z,55.17
2018-07-09T16:35:16.550Z,55.38
2018-07-09T16:37:45.250Z,54.49
2018-07-09T16:40:13.920Z,54.63
2018-07-09T16:42:42.979Z,55.36
2018-07-09T16:45:11.722Z,56.11
2018-07-09T16:47:41.071Z,55.75
2018-07-09T16:50:10.029Z,55.70
2018-07-09T16:52:38.757Z,55.91
2018-07-09T16:55:07.528Z,56.07
2018-07-09T16:57:36.317Z,56.44
2018-07-09T17:00:05.140Z,56.01
2018-07-09T17:02:33.903Z,56.36
2018-07-09T17:05:02.580Z,56.08
2018-07-09T17:07:31.273Z,56.40
2018-07-09T17:09:59.952Z,55.88
2018-07-09T17:12:28.629Z,56.00
2018-07-09T17:14:57.336Z,56.21
2018-07-09T17:17:26.017Z,56.16
2018-07-09T17:19:54.780Z,56.18
2018-07-09T17:22:23.444Z,56.16
2018-07-09T17:24:52.146Z,55.26
2018-07-09T17:27:21.477Z,54.98
2018-07-09T17:29:50.132Z,55.54
2018-07-09T17:32:18.868Z,55.57
2018-07-09T17:34:47.537Z,55.62
2018-07-09T17:37:16.152Z,55.57
2018-07-09T17:39:44.823Z,55.95
2018-07-09T17:42:13.491Z,56.18
2018-07-09T17:44:42.144Z,55.91
2018-07-09T17:47:10.831Z,56.81
2018-07-09T17:49:39.505Z,57.01
2018-07-09T17:52:08.435Z,57.03
2018-07-09T17:54:37.486Z,57.39
2018-07-09T17:57:06.181Z,57.55
2018-07-09T17:59:34.818Z,57.74
2018-07-09T18:02:03.528Z,57.69
2018-07-09T18:04:32.265Z,57.53
2018-07-09T18:07:00.919Z,57.78
2018-07-09T18:09:29.784Z,57.56
2018-07-09T18:11:58.475Z,57.32
2018-07-09T18:14:27.166Z,57.22
2018-07-09T18:16:55.914Z,57.47
2018-07-09T18:19:24.747Z,57.69
2018-07-09T18:21:53.436Z,57.61
2018-07-09T18:24:22.124Z,57.59
2018-07-09T18:26:50.871Z,57.88
2018-07-09T18:29:20.034Z,57.31
2018-07-09T18:31:48.749Z,56.75
2018-07-09T18:34:17.389Z,56.86
2018-07-09T18:36:46.141Z,57.37
2018-07-09T18:39:14.840Z,57.17
2018-07-09T18:41:43.558Z,57.52
2018-07-09T18:44:12.236Z,57.39
2018-07-09T18:46:40.895Z,57.76
2018-07-09T18:49:09.638Z,57.76
2018-07-09T18:51:38.308Z,58.14
2018-07-09T18:54:06.999Z,57.84
2018-07-09T18:56:35.663Z,57.88
2018-07-09T18:59:04.386Z,58.14
2018-07-09T19:01:33.727Z,58.33
2018-07-09T19:04:02.554Z,58.20
2018-07-09T19:06:47.618Z,58.45
2018-07-09T19:09:16.387Z,58.50
2018-07-09T19:11:45.076Z,58.44
2018-07-09T19:14:13.858Z,58.45
2018-07-09T19:16:54.451Z,58.96
2018-07-09T19:19:35.106Z,58.76
2018-07-09T19:22:04.072Z,59.05
2018-07-09T19:24:32.337Z,59.17
2018-07-09T19:27:00.736Z,59.30
2018-07-09T19:29:28.454Z,59.36
2018-07-09T19:31:56.249Z,59.36
2018-07-09T19:34:23.904Z,59.71
2018-07-09T19:36:51.722Z,60.28
2018-07-09T19:39:19.422Z,60.10
2018-07-09T19:41:47.175Z,60.46
2018-07-09T19:44:14.842Z,59.45
2018-07-09T19:46:42.506Z,60.49
2018-07-09T19:49:12.953Z,60.07
2018-07-09T19:51:40.708Z,60.03
2018-07-09T19:54:08.393Z,60.61
2018-07-09T19:56:36.056Z,60.07
2018-07-09T19:59:03.897Z,59.88
2018-07-09T20:01:31.585Z,59.91
2018-07-09T20:03:59.263Z,60.25
2018-07-09T20:06:26.953Z,60.24
2018-07-09T20:08:59.997Z,60.52
2018-07-09T20:11:33.036Z,60.84
2018-07-09T20:14:05.995Z,60.75
2018-07-09T20:16:38.981Z,60.63
2018-07-09T20:19:07.184Z,60.87
2018-07-09T20:21:35.882Z,60.94
2018-07-09T20:24:03.589Z,61.22
2018-07-09T20:26:31.296Z,61.33
2018-07-09T20:28:58.996Z,61.37
2018-07-09T20:31:26.697Z,61.73
2018-07-09T20:33:54.343Z,61.30
2018-07-09T20:36:22.069Z,61.18
2018-07-09T20:38:49.743Z,61.33
2018-07-09T20:41:17.456Z,61.16
2018-07-09T20:43:45.152Z,61.40
2018-07-09T20:46:12.848Z,61.48
2018-07-09T20:48:40.534Z,61.59
2018-07-09T20:51:08.226Z,61.75
2018-07-09T20:53:35.901Z,61.86
2018-07-09T20:56:03.626Z,61.74
2018-07-09T20:58:31.322Z,61.78
2018-07-09T21:00:59.005Z,62.00
2018-07-09T21:03:26.707Z,61.99
2018-07-09T21:05:54.412Z,61.39
2018-07-09T21:08:22.138Z,61.26
2018-07-09T21:10:49.849Z,60.91
2018-07-09T21:13:17.551Z,61.04
2018-07-09T21:15:45.410Z,60.81
2018-07-09T21:18:13.015Z,60.54
2018-07-09T21:20:40.689Z,60.66
2018-07-09T21:23:08.424Z,60.76
2018-07-09T21:25:36.116Z,61.10
2018-07-09T21:28:03.870Z,61.43
2018-07-09T21:30:31.544Z,61.22
2018-07-09T21:32:59.262Z,61.20
2018-07-09T21:35:26.994Z,61.24
2018-07-09T21:37:54.862Z,61.73
2018-07-09T21:40:23.081Z,62.07
2018-07-09T21:42:50.783Z,62.21
2018-07-09T21:45:18.479Z,62.53
2018-07-09T21:47:46.743Z,62.19
2018-07-09T21:50:14.436Z,62.32
2018-07-09T21:52:42.124Z,62.45
2018-07-09T21:55:09.830Z,62.20
2018-07-09T21:57:37.523Z,61.23
2018-07-09T22:00:05.207Z,61.81
2018-07-09T22:02:32.915Z,62.57
2018-07-09T22:05:00.592Z,62.84
2018-07-09T22:07:28.587Z,63.00
2018-07-09T22:09:56.252Z,62.92
2018-07-09T22:12:23.920Z,62.60
2018-07-09T22:14:51.629Z,63.19
2018-07-09T22:17:19.368Z,63.52
2018-07-09T22:19:47.520Z,63.26
2018-07-09T22:22:15.248Z,64.01
2018-07-09T22:24:42.986Z,63.65
2018-07-09T22:27:10.768Z,63.19
2018-07-09T22:29:38.520Z,64.76
2018-07-09T22:32:07.208Z,64.42
2018-07-09T22:34:35.880Z,63.17
2018-07-09T22:37:04.625Z,63.63
2018-07-09T22:39:33.370Z,63.79
2018-07-09T22:42:02.039Z,63.75
2018-07-09T22:44:30.750Z,63.74
2018-07-09T22:46:59.428Z,64.55
2018-07-09T22:49:28.097Z,64.06
2018-07-09T22:51:56.849Z,64.20
2018-07-09T22:54:25.610Z,63.98
2018-07-09T22:56:54.257Z,65.02
2018-07-09T22:59:22.956Z,65.84
2018-07-09T23:01:51.613Z,65.29
2018-07-09T23:04:20.282Z,64.88
2018-07-09T23:06:49.021Z,65.34
2018-07-09T23:10:29.134Z,66.31
2018-07-09T23:13:25.034Z,65.95
2018-07-09T23:16:37.196Z,66.48
2018-07-09T23:19:22.763Z,66.73
2018-07-09T23:22:23.720Z,65.95
2018-07-09T23:24:51.404Z,66.71
2018-07-09T23:27:19.131Z,67.09
2018-07-09T23:29:46.824Z,67.11
2018-07-09T23:32:14.515Z,67.52
2018-07-09T23:34:42.207Z,67.11
2018-07-09T23:37:09.865Z,67.64
2018-07-09T23:39:37.574Z,67.50
2018-07-09T23:42:05.385Z,67.89
2018-07-09T23:44:33.084Z,67.55
2018-07-09T23:47:00.793Z,67.86
2018-07-09T23:49:28.482Z,68.40
2018-07-09T23:51:56.153Z,67.57
2018-07-09T23:54:23.819Z,68.38
2018-07-09T23:59:03.673Z,68.90
